Time;durP1;ratioP1;P1;durP2;ratioP2;P2;SDS_P1;SDS_P2;PMS_P1;PMS_P2;Temp;Humidity;BMP_temperature;BMP_pressure;BME280_temperature;BME280_humidity;BME280_pressure;Samples;Min_cycle;Max_cycle;Signal;HPM_P1;HPM_P2
2022/11/04 00:00:52;;;;;;;16.15;10.60;;;;;;;11.02;84.61;97043.47;4970556;28;20039;-82
2022/11/04 00:03:18;;;;;;;15.73;10.70;;;;;;;11.00;85.00;97038.47;4970652;28;20375;-82
2022/11/04 00:05:43;;;;;;;18.52;11.70;;;;;;;11.01;84.87;97031.38;4970634;28;20085;-82
2022/11/04 00:08:24;;;;;;;16.58;10.95;;;;;;;10.91;84.36;97024.88;4969159;28;20045;-82
2022/11/04 00:13:41;;;;;;;15.85;10.43;;;;;;;10.80;84.82;97041.44;4970520;28;20033;-82
2022/11/04 00:18:53;;;;;;;18.15;11.15;;;;;;;10.87;84.78;97051.81;4967139;28;20045;-82
2022/11/04 00:29:33;;;;;;;15.82;10.23;;;;;;;10.78;84.99;97050.53;4933584;28;1071131;-82
2022/11/04 00:34:43;;;;;;;13.65;10.20;;;;;;;10.84;84.69;97068.78;4970866;28;20046;-81
2022/11/04 00:37:08;;;;;;;17.23;9.30;;;;;;;10.86;84.74;97081.69;4971121;28;20666;-82
2022/11/04 00:39:34;;;;;;;15.55;9.48;;;;;;;10.85;84.05;97080.88;4970962;28;20486;-82
2022/11/04 00:41:59;;;;;;;14.02;9.98;;;;;;;10.90;85.12;97083.63;4971101;28;20034;-81
2022/11/04 00:44:25;;;;;;;16.88;9.73;;;;;;;10.95;84.17;97094.22;4970722;28;20066;-81
2022/11/04 00:46:50;;;;;;;16.70;10.40;;;;;;;10.93;84.34;97088.44;4970776;28;20097;-81
2022/11/04 00:49:16;;;;;;;16.05;11.02;;;;;;;10.92;85.19;97092.06;4970778;28;20041;-82
2022/11/04 00:51:41;;;;;;;16.65;10.48;;;;;;;10.88;85.70;97088.28;4970976;28;20035;-81
2022/11/04 00:54:07;;;;;;;14.57;9.82;;;;;;;10.90;85.33;97083.63;4970455;28;20050;-82
2022/11/04 00:56:32;;;;;;;17.27;10.27;;;;;;;10.92;86.22;97086.84;4970389;28;20089;-82
2022/11/04 00:58:59;;;;;;;16.02;9.20;;;;;;;10.93;86.27;97091.03;4966009;28;20122;-82
2022/11/04 01:01:24;;;;;;;14.68;10.20;;;;;;;10.97;86.88;97094.81;4970402;28;20465;-82
2022/11/04 01:03:52;;;;;;;16.73;10.10;;;;;;;10.96;87.51;97102.91;4970651;28;20109;-82
2022/11/04 01:06:21;;;;;;;17.08;10.35;;;;;;;10.99;87.67;97098.00;4970059;28;20435;-82
2022/11/04 01:08:47;;;;;;;17.38;10.15;;;;;;;11.01;87.51;97089.91;4970206;28;20685;-82
2022/11/04 01:11:13;;;;;;;16.02;9.40;;;;;;;11.06;87.27;97087.41;4968958;28;20039;-82
2022/11/04 01:13:39;;;;;;;15.18;10.40;;;;;;;11.06;87.33;97070.88;4969238;28;20244;-83
2022/11/04 01:16:08;;;;;;;15.57;9.05;;;;;;;11.11;86.78;97094.59;4970213;28;20037;-83
2022/11/04 01:18:35;;;;;;;16.52;9.55;;;;;;;11.11;86.03;97095.41;4966955;28;20372;-82
2022/11/04 01:21:02;;;;;;;12.85;8.32;;;;;;;11.05;85.04;97083.19;4970284;28;20048;-82
2022/11/04 01:23:28;;;;;;;13.82;9.15;;;;;;;11.07;86.01;97081.13;4970781;28;20047;-82
2022/11/04 01:25:54;;;;;;;13.98;8.32;;;;;;;11.06;86.14;97084.00;4969764;28;20521;-82
2022/11/04 01:28:19;;;;;;;11.27;7.82;;;;;;;11.10;86.33;97077.28;4970185;28;20046;-82
2022/11/04 01:30:45;;;;;;;11.38;7.82;;;;;;;11.11;86.53;97087.53;4969566;28;20549;-82
2022/11/04 01:33:10;;;;;;;11.80;7.88;;;;;;;11.06;86.49;97076.91;4969503;28;20198;-82
2022/11/04 01:35:36;;;;;;;10.02;6.65;;;;;;;10.99;86.64;97074.41;4968516;28;20050;-83
2022/11/04 01:38:01;;;;;;;11.73;7.07;;;;;;;11.01;87.72;97086.50;4969985;28;20027;-82
2022/11/04 01:40:27;;;;;;;12.05;6.22;;;;;;;10.91;87.24;97090.44;4969599;28;20043;-82
2022/11/04 01:42:52;;;;;;;5.22;4.18;;;;;;;10.90;87.14;97088.06;4969360;28;20219;-82
2022/11/04 01:45:21;;;;;;;6.68;4.75;;;;;;;10.89;88.39;97092.50;4970154;28;20191;-82
2022/11/04 01:47:55;;;;;;;7.07;4.15;;;;;;;10.79;87.74;97087.00;4969697;28;20035;-82
2022/11/04 01:50:26;;;;;;;5.75;4.20;;;;;;;10.78;88.41;97106.41;4969514;28;20084;-82
2022/11/04 01:53:06;;;;;;;5.40;3.58;;;;;;;10.74;87.88;97104.47;4969565;28;20661;-81
2022/11/04 01:55:38;;;;;;;5.50;3.50;;;;;;;10.72;87.46;97099.44;4969624;28;20038;-81
2022/11/04 01:58:12;;;;;;;4.80;3.17;;;;;;;10.75;87.50;97099.00;4968562;28;20038;-81
2022/11/04 02:00:40;;;;;;;5.55;3.08;;;;;;;10.69;86.97;97102.50;4968961;28;20494;-82
2022/11/04 02:03:42;;;;;;;5.20;3.20;;;;;;;10.66;86.54;97123.94;4970030;28;20063;-81
2022/11/04 02:06:08;;;;;;;3.92;2.80;;;;;;;10.68;86.25;97116.66;4965344;28;20074;-82
2022/11/04 02:08:34;;;;;;;4.60;3.30;;;;;;;10.65;87.56;97119.72;4969627;28;20089;-82
2022/11/04 02:11:03;;;;;;;4.10;2.80;;;;;;;10.76;87.40;97131.25;4969347;28;20474;-82
2022/11/04 02:13:35;;;;;;;4.88;2.72;;;;;;;10.74;87.53;97152.47;4969455;28;20034;-82
2022/11/04 02:16:45;;;;;;;5.20;2.95;;;;;;;10.80;89.33;97163.91;4969526;28;20418;-82
2022/11/04 02:19:28;;;;;;;4.47;2.85;;;;;;;10.80;88.32;97174.41;4964127;28;20535;-82
2022/11/04 02:22:05;;;;;;;4.15;2.67;;;;;;;10.72;86.60;97160.53;4969241;28;20035;-82
2022/11/04 02:25:12;;;;;;;2.83;2.38;;;;;;;10.77;86.98;97164.34;4969239;28;20039;-82
2022/11/04 02:28:32;;;;;;;3.47;2.30;;;;;;;10.77;86.34;97152.03;4967804;28;20038;-82
2022/11/04 02:31:47;;;;;;;3.47;2.30;;;;;;;10.75;85.67;97148.03;4968565;28;20051;-82
2022/11/04 02:34:24;;;;;;;2.20;1.90;;;;;;;10.75;84.78;97155.91;4969515;28;20030;-82
2022/11/04 02:37:02;;;;;;;2.63;2.00;;;;;;;10.72;85.13;97159.75;4969371;28;20092;-82
2022/11/04 02:39:37;;;;;;;2.17;1.85;;;;;;;10.70;84.02;97156.56;4968635;28;20047;-82
2022/11/04 02:42:38;;;;;;;3.55;1.92;;;;;;;10.70;84.20;97156.56;4969154;28;20039;-82
2022/11/04 02:45:34;;;;;;;2.50;1.70;;;;;;;10.72;84.27;97155.31;4946805;28;20571;-82
2022/11/04 02:48:29;;;;;;;3.42;1.88;;;;;;;10.71;84.21;97158.16;4968889;28;20475;-82
2022/11/04 02:51:12;;;;;;;2.22;1.73;;;;;;;10.72;83.30;97160.53;4968736;28;20062;-82
2022/11/04 02:53:51;;;;;;;3.25;1.60;;;;;;;10.75;84.20;97159.31;4968395;28;20045;-82
2022/11/04 02:56:21;;;;;;;2.60;1.65;;;;;;;10.76;84.80;97155.66;4969040;28;20470;-82
2022/11/04 02:58:59;;;;;;;4.03;1.67;;;;;;;10.77;83.51;97146.78;4969027;28;20042;-82
2022/11/04 03:01:33;;;;;;;2.85;1.48;;;;;;;10.79;84.34;97149.97;4968799;28;20483;-82
2022/11/04 03:04:15;;;;;;;2.60;1.95;;;;;;;10.76;83.81;97137.31;4968061;28;20039;-82
2022/11/04 03:06:45;;;;;;;2.25;1.50;;;;;;;10.77;83.36;97144.16;4968436;28;20038;-82
2022/11/04 03:09:14;;;;;;;2.45;1.80;;;;;;;10.81;83.41;97134.03;4968637;28;20402;-82
2022/11/04 03:11:45;;;;;;;1.92;1.65;;;;;;;10.74;84.02;97126.25;4964936;28;20129;-82
2022/11/04 03:14:26;;;;;;;2.63;1.70;;;;;;;10.70;83.27;97139.00;4968696;28;20042;-82
2022/11/04 03:17:02;;;;;;;2.60;1.50;;;;;;;10.70;83.59;97141.63;4968749;28;20043;-82
2022/11/04 03:19:42;;;;;;;1.60;1.40;;;;;;;10.70;83.01;97133.75;4965973;28;20524;-82
2022/11/04 03:22:17;;;;;;;2.20;1.73;;;;;;;10.69;83.96;97139.22;4984236;28;20053;-82
2022/11/04 03:24:46;;;;;;;2.28;1.98;;;;;;;10.66;83.98;97140.47;4971827;28;20383;-82
2022/11/04 03:27:36;;;;;;;2.35;1.60;;;;;;;10.60;84.41;97135.31;4972068;28;20549;-80
2022/11/04 03:30:11;;;;;;;2.70;1.60;;;;;;;10.63;84.13;97148.00;4970360;28;20046;-81
2022/11/04 03:32:58;;;;;;;1.95;1.30;;;;;;;10.64;84.64;97173.19;4972385;28;20034;-82
2022/11/04 03:35:27;;;;;;;1.83;1.50;;;;;;;10.63;84.20;97174.22;4970960;28;20047;-82
2022/11/04 03:37:52;;;;;;;1.90;1.48;;;;;;;10.58;83.33;97159.13;4987007;28;20047;-82
2022/11/04 03:40:21;;;;;;;3.25;1.50;;;;;;;10.62;83.17;97170.78;4969985;28;20043;-82
2022/11/04 03:42:58;;;;;;;2.03;1.40;;;;;;;10.68;83.70;97169.09;4972016;28;20045;-82
2022/11/04 03:45:25;;;;;;;3.35;1.60;;;;;;;10.74;82.83;97162.16;4970880;28;20046;-81
2022/11/04 03:47:51;;;;;;;1.95;1.50;;;;;;;10.67;83.00;97151.75;4971289;28;20045;-82
2022/11/04 03:50:32;;;;;;;2.00;1.50;;;;;;;10.70;81.97;97152.13;4971814;28;20039;-82
2022/11/04 03:52:59;;;;;;;1.95;1.35;;;;;;;10.81;83.52;97158.44;4971400;28;20118;-81
2022/11/04 03:56:04;;;;;;;1.40;1.30;;;;;;;10.77;82.33;97157.25;4970801;28;20041;-82
2022/11/04 03:58:40;;;;;;;1.65;1.33;;;;;;;10.78;81.96;97166.72;4970598;28;20077;-81
2022/11/04 04:01:23;;;;;;;1.73;1.63;;;;;;;10.75;82.09;97169.81;4970744;28;20039;-82
2022/11/04 04:04:29;;;;;;;2.85;1.52;;;;;;;10.78;82.27;97164.09;4970989;28;20046;-82
2022/11/04 04:07:26;;;;;;;1.95;1.50;;;;;;;10.83;82.31;97164.25;4968975;28;20082;-82
2022/11/04 04:10:37;;;;;;;1.65;1.40;;;;;;;10.86;82.26;97166.44;4971063;28;20030;-82
2022/11/04 04:12:59;;;;;;;1.70;1.60;;;;;;;10.89;82.50;97170.41;4971665;28;20426;-82
2022/11/04 04:15:49;;;;;;;2.30;1.92;;;;;;;10.77;82.02;97170.38;4970064;28;20035;-82
2022/11/04 04:18:26;;;;;;;2.28;1.83;;;;;;;10.76;82.11;97160.91;4967578;28;20039;-82
2022/11/04 04:20:57;;;;;;;2.28;2.08;;;;;;;10.84;81.59;97151.91;4971433;28;20085;-82
2022/11/04 04:29:06;;;;;;;2.10;1.90;;;;;;;10.83;80.95;97173.94;4971420;28;20054;-82
2022/11/04 04:31:48;;;;;;;4.72;2.00;;;;;;;10.84;81.69;97178.16;4971185;28;20046;-82
2022/11/04 04:34:22;;;;;;;3.10;1.98;;;;;;;10.86;81.16;97179.53;4969801;28;20159;-82
2022/11/04 04:36:57;;;;;;;2.17;1.98;;;;;;;10.80;79.95;97183.06;4969405;28;20023;-82
2022/11/04 04:45:04;;;;;;;2.65;1.80;;;;;;;10.81;79.96;97183.84;4970454;28;20546;-81
2022/11/04 04:47:43;;;;;;;1.73;1.60;;;;;;;10.84;79.85;97173.69;4970877;28;20039;-81
2022/11/04 04:50:12;;;;;;;2.75;1.67;;;;;;;10.83;79.12;97164.25;4970362;28;20597;-81
2022/11/04 04:52:43;;;;;;;2.58;1.45;;;;;;;10.76;79.24;97155.66;4970204;28;20528;-82
2022/11/04 04:55:11;;;;;;;2.08;1.70;;;;;;;10.77;79.28;97156.47;4970053;28;20038;-82
2022/11/04 04:57:36;;;;;;;2.58;1.90;;;;;;;10.78;79.40;97158.84;4970878;28;20045;-82
2022/11/04 05:00:05;;;;;;;2.03;1.80;;;;;;;10.71;79.30;97148.47;4970155;28;20470;-82
2022/11/04 05:02:31;;;;;;;2.08;1.83;;;;;;;10.74;79.07;97146.44;4969754;28;20130;-82
2022/11/04 05:04:58;;;;;;;2.28;1.58;;;;;;;10.68;79.37;97142.88;4970638;28;20102;-81
2022/11/04 05:07:24;;;;;;;3.17;1.60;;;;;;;10.70;79.34;97140.81;4970403;28;20070;-81
2022/11/04 05:09:51;;;;;;;1.80;1.70;;;;;;;10.68;79.16;97133.19;4968684;28;20094;-81
2022/11/04 05:12:17;;;;;;;2.55;1.83;;;;;;;10.67;79.01;97138.63;4969987;28;20030;-81
2022/11/04 05:14:42;;;;;;;2.65;1.85;;;;;;;10.68;78.99;97135.81;4970559;28;20419;-82
2022/11/04 05:17:08;;;;;;;3.63;1.90;;;;;;;10.68;79.17;97142.88;4970876;28;20165;-81
2022/11/04 05:19:33;;;;;;;2.58;1.60;;;;;;;10.66;79.33;97144.91;4966800;28;20069;-82
2022/11/04 05:21:59;;;;;;;3.35;2.00;;;;;;;10.65;78.72;97138.88;4969934;28;20736;-81
2022/11/04 05:24:24;;;;;;;2.92;1.80;;;;;;;10.62;79.42;97136.72;4969752;28;20045;-82
2022/11/04 05:26:50;;;;;;;3.95;2.40;;;;;;;10.68;79.11;97121.91;4970185;28;20030;-82
2022/11/04 05:29:15;;;;;;;4.00;1.90;;;;;;;10.71;79.24;97110.94;4969687;28;20157;-82
2022/11/04 05:31:41;;;;;;;2.60;1.98;;;;;;;10.64;78.83;97105.00;4969715;28;20085;-82
2022/11/04 05:34:10;;;;;;;1.65;1.55;;;;;;;10.65;79.39;97107.41;4969960;28;20035;-81
2022/11/04 05:36:36;;;;;;;2.75;2.05;;;;;;;10.66;78.90;97095.88;4969374;28;20035;-81
2022/11/04 05:39:02;;;;;;;3.45;2.00;;;;;;;10.72;79.34;97109.91;4969950;28;20082;-82
2022/11/04 05:41:28;;;;;;;2.30;2.05;;;;;;;10.65;79.57;97122.34;4969722;28;20046;-82
2022/11/04 05:43:56;;;;;;;5.25;2.30;;;;;;;10.59;79.03;97129.28;4969821;28;20038;-82
2022/11/04 05:46:23;;;;;;;2.05;1.80;;;;;;;10.58;79.34;97124.25;4968672;28;20038;-82
2022/11/04 05:48:49;;;;;;;3.17;2.20;;;;;;;10.56;79.24;97128.94;4969807;28;20045;-82
2022/11/04 05:51:20;;;;;;;3.70;2.15;;;;;;;10.50;79.72;97146.34;4969448;28;20407;-82
2022/11/04 05:53:45;;;;;;;3.13;2.38;;;;;;;10.51;80.21;97160.25;4969517;28;20050;-81
2022/11/04 05:56:11;;;;;;;3.40;2.25;;;;;;;10.48;80.67;97179.03;4969130;28;20498;-81
2022/11/04 05:58:36;;;;;;;2.97;1.95;;;;;;;10.45;79.74;97183.72;4969783;28;20066;-81
2022/11/04 06:01:22;;;;;;;4.05;2.50;;;;;;;10.49;79.62;97159.66;4969904;28;20035;-81
2022/11/04 06:03:47;;;;;;;3.17;2.45;;;;;;;10.45;79.98;97117.38;4969560;28;20031;-82
2022/11/04 06:06:12;;;;;;;3.70;2.00;;;;;;;10.50;79.67;97093.91;4973983;28;20041;-82
2022/11/04 06:08:38;;;;;;;2.53;2.33;;;;;;;10.52;79.40;97118.06;4969435;28;20113;-81
2022/11/04 06:11:04;;;;;;;2.90;2.22;;;;;;;10.50;79.21;97145.56;4968925;28;20114;-82
2022/11/04 06:13:30;;;;;;;3.45;2.20;;;;;;;10.39;78.98;97152.34;4969556;28;20077;-82
2022/11/04 06:15:56;;;;;;;2.40;2.17;;;;;;;10.35;78.30;97162.44;4969309;28;20506;-82
2022/11/04 06:18:21;;;;;;;4.68;2.20;;;;;;;10.38;78.88;97185.63;4965606;28;20039;-82
2022/11/04 06:20:47;;;;;;;2.58;2.00;;;;;;;10.32;77.66;97196.97;4969138;28;20041;-82
2022/11/04 06:23:12;;;;;;;2.10;1.60;;;;;;;10.29;76.13;97205.25;4967996;28;20174;-82
2022/11/04 06:25:38;;;;;;;2.22;1.70;;;;;;;10.33;76.08;97203.81;4968978;28;20034;-82
2022/11/04 06:28:03;;;;;;;3.15;1.52;;;;;;;10.30;75.54;97219.16;4960598;28;20034;-81
2022/11/04 06:30:29;;;;;;;2.40;1.30;;;;;;;10.30;75.26;97219.16;4967865;28;20054;-82
2022/11/04 06:32:54;;;;;;;1.83;1.20;;;;;;;10.25;75.04;97230.28;4968591;28;20034;-82
2022/11/04 06:35:20;;;;;;;1.75;1.42;;;;;;;10.23;74.67;97239.38;4968186;28;20039;-82
2022/11/04 06:37:45;;;;;;;3.00;1.30;;;;;;;10.29;75.10;97238.53;4967648;28;20039;-82
2022/11/04 06:40:11;;;;;;;3.28;1.40;;;;;;;10.24;76.54;97241.81;4968011;28;20593;-82
2022/11/04 06:42:37;;;;;;;1.95;1.50;;;;;;;10.22;76.25;97264.00;4968498;28;20105;-82
2022/11/04 06:45:03;;;;;;;2.00;1.50;;;;;;;10.24;77.06;97270.63;4983270;28;20041;-82
2022/11/04 06:47:31;;;;;;;2.60;1.50;;;;;;;10.22;76.89;97277.09;4968221;28;20129;-82
2022/11/04 06:49:56;;;;;;;2.97;1.70;;;;;;;10.21;77.61;97281.53;4968060;28;20031;-82
2022/11/04 06:52:22;;;;;;;1.95;1.50;;;;;;;10.17;77.45;97277.72;4968265;28;20486;-82
2022/11/04 06:54:47;;;;;;;4.10;1.30;;;;;;;10.19;77.15;97273.06;4968292;28;20539;-82
2022/11/04 06:57:13;;;;;;;1.65;1.25;;;;;;;10.21;77.76;97267.63;4966908;28;20118;-82
2022/11/04 06:59:38;;;;;;;1.73;1.55;;;;;;;10.26;77.33;97266.00;4972607;28;20062;-82
2022/11/04 07:02:04;;;;;;;1.55;1.30;;;;;;;10.23;76.66;97265.59;4971821;28;20038;-82
2022/11/04 07:04:30;;;;;;;2.30;1.50;;;;;;;10.22;77.31;97254.31;4986400;28;20042;-81
2022/11/04 07:06:55;;;;;;;2.55;1.52;;;;;;;10.23;77.24;97252.47;4971921;28;20377;-81
2022/11/04 07:09:20;;;;;;;2.63;1.38;;;;;;;10.29;78.03;97262.91;4972299;28;20031;-81
2022/11/04 07:11:46;;;;;;;2.80;1.48;;;;;;;10.37;78.65;97275.72;4971974;28;20109;-81
2022/11/04 07:14:12;;;;;;;2.35;1.75;;;;;;;10.39;78.04;97278.16;4971461;28;20039;-81
2022/11/04 07:16:37;;;;;;;2.28;1.60;;;;;;;10.43;78.76;97282.75;4972495;28;20061;-81
2022/11/04 07:19:04;;;;;;;1.73;1.30;;;;;;;10.46;79.80;97276.25;4968676;28;20038;-81
2022/11/04 07:21:30;;;;;;;2.78;1.40;;;;;;;10.48;80.09;97268.97;4970731;28;20108;-81
2022/11/04 07:23:56;;;;;;;1.45;1.35;;;;;;;10.39;81.07;97254.56;4971690;28;20034;-81
2022/11/04 07:26:22;;;;;;;1.85;1.20;;;;;;;10.40;81.87;97241.22;4971085;28;20063;-81
2022/11/04 07:28:48;;;;;;;2.63;1.70;;;;;;;10.40;80.35;97230.75;4970650;28;20030;-81
2022/11/04 07:31:14;;;;;;;2.20;1.35;;;;;;;10.30;80.54;97203.44;4970875;28;20506;-82
2022/11/04 07:33:40;;;;;;;2.03;1.75;;;;;;;10.32;82.53;97196.97;4971933;28;20114;-81
2022/11/04 07:36:10;;;;;;;2.33;1.40;;;;;;;10.30;82.59;97188.50;4972119;28;20586;-81
2022/11/04 07:38:35;;;;;;;5.07;1.80;;;;;;;10.38;84.00;97206.59;4970433;28;20065;-81
2022/11/04 07:41:01;;;;;;;2.50;1.70;;;;;;;10.30;82.59;97201.63;4970862;28;20744;-82
2022/11/04 07:43:28;;;;;;;3.85;2.00;;;;;;;10.24;81.21;97199.88;4971239;28;20069;-81
2022/11/04 07:46:06;;;;;;;3.33;1.90;;;;;;;10.23;81.48;97203.53;4971669;28;20054;-81
2022/11/04 07:48:32;;;;;;;3.53;1.85;;;;;;;10.33;82.39;97213.50;4969060;28;20045;-81
2022/11/04 07:51:00;;;;;;;3.28;1.80;;;;;;;10.38;81.69;97206.59;4970058;28;20035;-81
2022/11/04 07:53:28;;;;;;;3.28;2.60;;;;;;;10.30;81.00;97185.91;4971240;28;20415;-82
2022/11/04 07:55:54;;;;;;;2.58;1.65;;;;;;;10.36;81.97;97174.53;4970776;28;20027;-81
2022/11/04 07:58:22;;;;;;;3.45;2.05;;;;;;;10.49;81.01;97186.66;4971544;28;20058;-81
2022/11/04 08:00:49;;;;;;;3.80;1.92;;;;;;;10.42;81.08;97202.47;4970425;28;20030;-81
2022/11/04 08:03:15;;;;;;;4.03;2.00;;;;;;;10.37;81.18;97204.16;4970751;28;20391;-82
2022/11/04 08:05:40;;;;;;;2.47;1.90;;;;;;;10.35;81.36;97207.00;4971558;28;20045;-82
2022/11/04 08:08:06;;;;;;;3.17;2.05;;;;;;;10.35;81.33;97196.53;4971128;28;20042;-81
2022/11/04 08:10:32;;;;;;;3.15;2.10;;;;;;;10.25;81.23;97188.38;4970845;28;20042;-82
2022/11/04 08:12:58;;;;;;;2.45;1.92;;;;;;;10.26;82.05;97200.47;4971066;28;20035;-82
2022/11/04 08:15:23;;;;;;;3.58;1.90;;;;;;;10.30;81.88;97219.16;4971071;28;20038;-82
2022/11/04 08:17:48;;;;;;;2.58;2.00;;;;;;;10.19;81.54;97223.28;4967978;28;20138;-81
2022/11/04 08:20:14;;;;;;;5.57;2.20;;;;;;;10.22;82.27;97235.97;4971296;28;20071;-81
2022/11/04 08:22:40;;;;;;;3.63;2.20;;;;;;;10.15;81.73;97237.84;4971595;28;20101;-82
2022/11/04 08:25:06;;;;;;;5.50;2.50;;;;;;;10.21;81.76;97257.94;4970386;28;20045;-82
2022/11/04 08:27:33;;;;;;;2.97;2.00;;;;;;;10.14;82.29;97257.22;4971391;28;20039;-81
2022/11/04 08:29:58;;;;;;;5.10;2.33;;;;;;;10.13;82.56;97266.06;4969818;28;20075;-81
2022/11/04 08:32:24;;;;;;;7.78;2.30;;;;;;;10.11;82.93;97279.41;4970128;28;20046;-82
2022/11/04 08:34:49;;;;;;;5.72;2.42;;;;;;;10.14;83.18;97286.84;4970135;28;20041;-82
2022/11/04 08:37:16;;;;;;;5.10;3.03;;;;;;;10.12;83.32;97274.94;4970855;28;20050;-82
2022/11/04 08:39:42;;;;;;;4.05;2.78;;;;;;;10.16;83.46;97282.19;4967790;28;20038;-80
2022/11/04 08:42:09;;;;;;;6.55;3.45;;;;;;;10.15;83.60;97295.50;4970139;28;20046;-80
2022/11/04 08:44:34;;;;;;;4.70;2.97;;;;;;;10.16;82.93;97302.34;4969443;28;20100;-80
2022/11/04 08:47:02;;;;;;;7.72;2.85;;;;;;;10.08;83.01;97305.25;4967681;28;20035;-81
2022/11/04 08:49:27;;;;;;;4.40;2.97;;;;;;;10.08;82.37;97307.88;4968036;28;20039;-81
2022/11/04 08:51:58;;;;;;;3.42;2.78;;;;;;;10.03;82.49;97302.47;4968882;28;20034;-80
2022/11/04 08:54:25;;;;;;;5.90;2.70;;;;;;;10.03;82.50;97300.66;4968301;28;20407;-81
2022/11/04 08:56:51;;;;;;;4.00;3.10;;;;;;;10.04;81.76;97301.44;4969879;28;20482;-81
2022/11/04 08:59:17;;;;;;;3.88;2.90;;;;;;;10.09;82.62;97301.59;4968399;28;20168;-80
2022/11/04 09:01:43;;;;;;;5.85;2.97;;;;;;;10.08;82.84;97306.03;4968072;28;20039;-80
2022/11/04 09:04:11;;;;;;;3.95;3.03;;;;;;;10.17;83.21;97301.31;4974408;28;20050;-80
2022/11/04 09:06:42;;;;;;;5.05;3.33;;;;;;;10.25;82.58;97295.00;4967917;28;20066;-80
2022/11/04 09:09:11;;;;;;;4.05;2.85;;;;;;;10.28;81.96;97298.00;4967610;28;20042;-80
2022/11/04 09:11:41;;;;;;;3.70;3.08;;;;;;;10.36;81.17;97297.72;4968848;28;20046;-80
2022/11/04 09:14:09;;;;;;;4.78;2.53;;;;;;;10.38;80.29;97298.31;4969306;28;20081;-80
2022/11/04 09:16:36;;;;;;;4.22;3.05;;;;;;;10.43;80.04;97306.34;4967895;28;20042;-81
2022/11/04 09:19:02;;;;;;;5.18;2.80;;;;;;;10.43;80.33;97305.50;4965929;28;20046;-80
2022/11/04 09:21:28;;;;;;;4.95;2.63;;;;;;;10.44;79.68;97305.31;4968117;28;20043;-80
2022/11/04 09:23:54;;;;;;;5.30;2.80;;;;;;;10.38;79.73;97308.81;4967579;28;20126;-80
2022/11/04 09:26:22;;;;;;;4.97;2.90;;;;;;;10.42;79.64;97315.19;4967439;28;20035;-80
2022/11/04 09:28:56;;;;;;;4.10;2.58;;;;;;;10.42;80.03;97307.34;4967783;28;20045;-80
2022/11/04 09:31:24;;;;;;;6.47;2.67;;;;;;;10.43;79.04;97297.66;4967271;28;20399;-80
2022/11/04 09:33:50;;;;;;;3.97;2.50;;;;;;;10.31;78.93;97266.13;4968562;28;20035;-80
2022/11/04 09:36:16;;;;;;;4.50;2.50;;;;;;;10.29;78.56;97262.91;4969345;28;20039;-80
2022/11/04 09:38:43;;;;;;;6.15;2.80;;;;;;;10.29;78.69;97244.56;4969355;28;20034;-80
2022/11/04 09:41:30;;;;;;;3.60;2.10;;;;;;;10.25;77.93;97243.41;4969060;28;20382;-80
2022/11/04 09:44:14;;;;;;;2.60;1.77;;;;;;;10.23;78.51;97240.22;4967397;28;20121;-80
2022/11/04 09:46:42;;;;;;;4.85;1.90;;;;;;;10.22;78.36;97249.06;4969040;28;20142;-80
2022/11/04 09:49:11;;;;;;;6.30;2.22;;;;;;;10.17;77.53;97243.66;4969763;28;20034;-80
2022/11/04 09:51:40;;;;;;;2.47;1.83;;;;;;;10.13;77.39;97250.34;4969108;28;20041;-81
2022/11/04 09:54:21;;;;;;;3.70;1.88;;;;;;;10.08;77.51;97252.84;4969271;28;20038;-80
2022/11/04 09:56:51;;;;;;;5.15;2.03;;;;;;;10.19;78.16;97254.72;4967606;28;20085;-80
2022/11/04 09:59:32;;;;;;;3.45;1.90;;;;;;;10.22;78.36;97254.31;4966478;28;20037;-80
2022/11/04 10:02:37;;;;;;;4.75;1.90;;;;;;;10.33;78.64;97261.47;4967187;28;20115;-80
2022/11/04 10:05:17;;;;;;;3.53;1.80;;;;;;;10.35;77.69;97262.06;4935197;28;20069;-80
2022/11/04 10:08:08;;;;;;;3.08;2.30;;;;;;;10.34;77.31;97257.84;4968460;28;20042;-80
2022/11/04 10:10:48;;;;;;;8.50;3.03;;;;;;;10.47;78.77;97266.56;4968260;28;20449;-80
2022/11/04 10:13:31;;;;;;;4.85;2.15;;;;;;;10.55;78.35;97263.66;4968738;28;20380;-80
2022/11/04 10:16:43;;;;;;;4.72;2.10;;;;;;;10.56;76.47;97249.53;4967412;28;20035;-80
2022/11/04 10:19:46;;;;;;;4.65;1.80;;;;;;;10.66;76.24;97244.56;4964230;28;20035;-80
2022/11/04 10:22:38;;;;;;;7.72;1.95;;;;;;;10.65;75.47;97238.50;4967817;28;20085;-80
2022/11/04 10:25:21;;;;;;;5.13;1.92;;;;;;;10.69;75.50;97238.88;4968163;28;20038;-80
2022/11/04 10:27:49;;;;;;;8.25;1.88;;;;;;;10.79;76.07;97230.47;4983912;28;20654;-80
2022/11/04 10:30:27;;;;;;;5.05;1.90;;;;;;;10.82;74.87;97230.84;4968196;28;20046;-80
2022/11/04 10:33:00;;;;;;;4.88;2.03;;;;;;;10.91;74.70;97228.69;4984339;28;20448;-80
2022/11/04 10:35:43;;;;;;;5.60;1.85;;;;;;;11.01;74.56;97226.34;4972602;28;20043;-80
2022/11/04 10:38:37;;;;;;;2.97;2.00;;;;;;;11.05;74.03;97222.25;4971892;28;20038;-80
2022/11/04 10:41:22;;;;;;;6.68;2.50;;;;;;;11.25;74.07;97216.72;4971826;28;20031;-80
2022/11/04 10:43:51;;;;;;;6.65;2.10;;;;;;;11.36;73.83;97221.19;4972247;28;20560;-80
2022/11/04 10:46:44;;;;;;;5.90;2.10;;;;;;;11.44;73.53;97220.06;4971044;28;20538;-80
2022/11/04 10:49:48;;;;;;;4.43;1.60;;;;;;;11.46;72.00;97234.56;4972631;28;20053;-80
2022/11/04 10:52:14;;;;;;;3.22;1.80;;;;;;;11.69;73.70;97232.97;4973499;28;20106;-80
2022/11/04 10:54:46;;;;;;;4.00;1.85;;;;;;;11.69;71.47;97238.25;4970791;28;20041;-80
2022/11/04 10:57:19;;;;;;;5.07;2.03;;;;;;;11.96;75.21;97236.81;4971328;28;20042;-80
2022/11/04 10:59:56;;;;;;;5.82;2.10;;;;;;;12.01;72.91;97242.19;4972311;28;20606;-80
2022/11/04 11:02:54;;;;;;;4.70;1.80;;;;;;;12.08;72.36;97249.16;4970703;28;20039;-79
2022/11/04 11:05:21;;;;;;;6.65;2.20;;;;;;;12.18;71.63;97262.53;4967160;28;20074;-79
2022/11/04 11:07:54;;;;;;;3.72;1.80;;;;;;;12.15;70.18;97262.97;4971707;28;20093;-79
2022/11/04 11:10:21;;;;;;;3.80;2.03;;;;;;;12.21;70.87;97256.78;4985990;28;20039;-79
2022/11/04 11:13:03;;;;;;;5.28;1.70;;;;;;;12.23;72.02;97265.22;4971722;28;20045;-79
2022/11/04 11:15:37;;;;;;;5.03;1.73;;;;;;;12.14;70.79;97256.13;4970769;28;20438;-79
2022/11/04 11:18:12;;;;;;;3.55;1.70;;;;;;;12.24;71.14;97245.81;4966851;28;20061;-79
2022/11/04 11:20:39;;;;;;;3.83;1.70;;;;;;;12.30;70.72;97250.16;4970302;28;20118;-79
2022/11/04 11:23:35;;;;;;;6.63;1.95;;;;;;;12.32;69.44;97237.56;4968208;28;20078;-79
2022/11/04 11:26:04;;;;;;;4.97;1.60;;;;;;;12.03;67.52;97229.59;4967292;28;20038;-79
2022/11/04 11:28:36;;;;;;;4.25;1.70;;;;;;;12.04;68.74;97235.66;4968856;28;20042;-79
2022/11/04 11:31:12;;;;;;;5.28;1.55;;;;;;;12.16;69.08;97223.28;4970474;28;20046;-79
2022/11/04 11:34:02;;;;;;;1.77;1.30;;;;;;;12.17;68.44;97221.47;4968370;28;20046;-79
2022/11/04 11:36:36;;;;;;;4.25;1.63;;;;;;;12.15;67.84;97226.16;4969723;28;20054;-79
2022/11/04 11:39:16;;;;;;;1.83;1.52;;;;;;;12.13;67.91;97204.56;4969478;28;20039;-79
2022/11/04 11:42:01;;;;;;;3.97;1.37;;;;;;;12.29;69.39;97201.22;4970768;28;20041;-79
2022/11/04 11:44:43;;;;;;;3.40;1.52;;;;;;;12.32;67.14;97195.50;4968886;28;20076;-79
2022/11/04 11:47:24;;;;;;;4.13;1.70;;;;;;;12.56;73.08;97206.75;4969971;28;20038;-79
2022/11/04 11:50:19;;;;;;;4.45;1.38;;;;;;;12.55;68.13;97213.84;4965652;28;20031;-79
2022/11/04 11:52:48;;;;;;;3.90;1.90;;;;;;;12.58;68.49;97205.47;4966201;28;20051;-80
2022/11/04 11:55:23;;;;;;;7.30;1.52;;;;;;;12.57;67.25;97209.16;4972295;28;20416;-79
2022/11/04 11:58:20;;;;;;;4.25;1.40;;;;;;;12.53;67.40;97208.03;4971053;28;20050;-80
2022/11/04 12:00:53;;;;;;;3.45;1.27;;;;;;;12.55;67.01;97207.81;4970085;28;20030;-79
2022/11/04 12:03:34;;;;;;;1.83;1.27;;;;;;;12.54;68.18;97209.63;4971015;28;20031;-80
2022/11/04 12:06:28;;;;;;;4.00;1.25;;;;;;;12.58;67.66;97204.69;4970517;28;20061;-80
2022/11/04 12:09:06;;;;;;;4.15;1.50;;;;;;;12.59;67.87;97201.84;4969226;28;20054;-79
2022/11/04 12:12:11;;;;;;;2.65;1.45;;;;;;;12.50;65.81;97192.72;4970356;28;20146;-79
2022/11/04 12:15:07;;;;;;;9.73;1.50;;;;;;;12.49;66.29;97179.81;4970445;28;20175;-80
2022/11/04 12:17:47;;;;;;;3.80;1.23;;;;;;;12.59;67.50;97190.50;4984962;28;20042;-79
2022/11/04 12:20:47;;;;;;;3.63;1.45;;;;;;;12.47;67.10;97198.41;4970644;28;20039;-80
2022/11/04 12:23:49;;;;;;;3.88;1.70;;;;;;;12.51;68.08;97199.56;4970390;28;20383;-79
2022/11/04 12:26:52;;;;;;;5.20;1.60;;;;;;;12.70;68.15;97215.16;4944164;28;20047;-80